Time;durP1;ratioP1;P1;durP2;ratioP2;P2;SDS_P1;SDS_P2;PMS_P1;PMS_P2;Temp;Humidity;BMP_temperature;BMP_pressure;BME280_temperature;BME280_humidity;BME280_pressure;Samples;Min_cycle;Max_cycle;Signal;HPM_P1;HPM_P2
2022/09/14 00:02:12;;;;;;;5.32;2.88;;;;;;;19.70;44.49;99509.25;5050921;28;20109;-43
2022/09/14 00:04:39;;;;;;;5.05;3.03;;;;;;;19.92;44.05;99503.63;5054025;28;20036;-45
2022/09/14 00:07:04;;;;;;;3.13;2.80;;;;;;;19.83;44.43;99506.03;5053940;28;20032;-44
2022/09/14 00:09:30;;;;;;;3.22;2.88;;;;;;;19.42;45.58;99503.31;5053571;28;20049;-42
2022/09/14 00:11:55;;;;;;;2.65;2.45;;;;;;;19.49;45.23;99508.44;5053788;28;20345;-43
2022/09/14 00:14:21;;;;;;;4.25;2.80;;;;;;;19.64;45.37;99511.13;5054093;28;20021;-45
2022/09/14 00:16:47;;;;;;;4.40;2.70;;;;;;;19.66;45.09;99516.28;5053741;28;20024;-45
2022/09/14 00:19:21;;;;;;;2.70;2.50;;;;;;;19.28;46.29;99515.69;5053645;28;20053;-44
2022/09/14 00:21:55;;;;;;;3.60;2.65;;;;;;;19.17;46.11;99516.72;5052328;28;20021;-43
2022/09/14 00:24:22;;;;;;;3.78;2.50;;;;;;;19.21;45.98;99515.94;5053562;28;20056;-46
2022/09/14 00:26:48;;;;;;;2.85;2.50;;;;;;;19.26;45.85;99520.53;5053225;28;20021;-44
2022/09/14 00:29:14;;;;;;;3.33;2.50;;;;;;;19.31;46.08;99523.25;5053208;28;20028;-46
2022/09/14 00:31:39;;;;;;;4.75;2.60;;;;;;;19.32;46.20;99514.06;5053230;28;20026;-44
2022/09/14 00:34:11;;;;;;;2.83;2.53;;;;;;;19.57;45.17;99512.47;5053382;28;20523;-46
2022/09/14 00:36:46;;;;;;;2.90;2.55;;;;;;;19.70;45.05;99517.34;5053521;28;20028;-44
2022/09/14 00:39:12;;;;;;;3.00;2.70;;;;;;;19.27;46.25;99506.78;5052996;28;20082;-44
2022/09/14 00:41:41;;;;;;;4.85;2.75;;;;;;;19.22;46.21;99506.75;5051064;28;20036;-44
2022/09/14 00:44:26;;;;;;;4.07;2.80;;;;;;;19.04;46.71;99513.47;5051243;28;20162;-43
2022/09/14 00:46:55;;;;;;;3.10;2.80;;;;;;;19.08;46.80;99505.66;5050240;28;20263;-43
2022/09/14 00:49:21;;;;;;;3.17;2.58;;;;;;;19.39;45.61;99511.13;5051092;28;20021;-46
2022/09/14 00:51:53;;;;;;;2.72;2.53;;;;;;;19.30;45.98;99522.41;5050794;28;20025;-44
2022/09/14 00:54:19;;;;;;;3.10;2.58;;;;;;;18.92;46.49;99519.09;5051127;28;20021;-43
2022/09/14 00:56:46;;;;;;;4.82;2.70;;;;;;;18.88;46.59;99514.47;5053194;28;20687;-44
2022/09/14 00:59:17;;;;;;;3.70;3.00;;;;;;;19.13;46.28;99522.66;5053012;28;20021;-43
2022/09/14 01:01:43;;;;;;;3.85;2.60;;;;;;;18.87;46.40;99523.66;5052919;28;20020;-45
2022/09/14 01:04:09;;;;;;;6.90;2.88;;;;;;;18.95;46.25;99515.84;5052684;28;20059;-46
2022/09/14 01:06:41;;;;;;;4.45;2.60;;;;;;;18.95;46.11;99523.94;5052948;28;20125;-43
2022/09/14 01:09:32;;;;;;;4.13;3.38;;;;;;;19.39;45.13;99516.53;5052841;28;20399;-43
2022/09/14 01:12:10;;;;;;;3.22;2.80;;;;;;;19.02;46.02;99521.00;5052762;28;20021;-44
2022/09/14 01:14:53;;;;;;;4.50;2.90;;;;;;;18.86;46.26;99522.81;5051302;28;20029;-44
2022/09/14 01:17:38;;;;;;;3.92;2.67;;;;;;;18.79;46.60;99519.56;5052524;28;20017;-44
2022/09/14 01:20:15;;;;;;;3.92;2.90;;;;;;;19.53;44.67;99518.44;5052996;28;20036;-43
2022/09/14 01:22:57;;;;;;;3.72;2.80;;;;;;;18.89;46.39;99518.81;5052556;28;20029;-44
2022/09/14 01:25:34;;;;;;;3.80;2.70;;;;;;;18.86;46.44;99513.94;5052382;28;20032;-43
2022/09/14 01:28:05;;;;;;;3.40;3.00;;;;;;;18.97;46.04;99517.47;5052413;28;20036;-45
2022/09/14 01:30:33;;;;;;;3.47;2.78;;;;;;;19.14;45.61;99513.47;5052320;28;20422;-43
2022/09/14 01:33:16;;;;;;;6.53;3.13;;;;;;;18.80;46.36;99510.41;5052379;28;21072;-43
2022/09/14 01:35:50;;;;;;;4.97;3.00;;;;;;;18.74;46.46;99509.53;5051928;28;20492;-46
2022/09/14 01:38:29;;;;;;;7.85;3.03;;;;;;;19.09;45.86;99515.34;5052045;28;20028;-45
2022/09/14 01:40:57;;;;;;;4.90;3.00;;;;;;;18.74;46.34;99516.81;5052244;28;20025;-44
2022/09/14 01:43:32;;;;;;;3.33;2.80;;;;;;;18.42;47.21;99525.00;5051841;28;20139;-45
2022/09/14 01:46:12;;;;;;;5.20;3.17;;;;;;;18.36;47.64;99527.66;5051675;28;20020;-46
2022/09/14 01:49:03;;;;;;;5.20;3.20;;;;;;;19.01;46.07;99529.34;5051772;28;20086;-45
2022/09/14 01:51:38;;;;;;;4.25;3.10;;;;;;;18.61;46.86;99520.78;5046107;28;20143;-42
2022/09/14 01:54:13;;;;;;;6.40;3.20;;;;;;;18.43;47.49;99510.44;5051826;28;20029;-44
2022/09/14 01:56:48;;;;;;;5.57;3.30;;;;;;;18.25;47.55;99517.88;5050379;28;20373;-43
2022/09/14 01:59:19;;;;;;;4.90;3.15;;;;;;;18.54;46.80;99523.75;5051283;28;20032;-45
2022/09/14 02:02:08;;;;;;;6.35;3.20;;;;;;;18.21;48.23;99524.88;5056561;28;20025;-44
2022/09/14 02:04:47;;;;;;;4.13;3.30;;;;;;;18.16;48.38;99519.44;5071836;28;20059;-43
2022/09/14 02:07:14;;;;;;;5.28;3.25;;;;;;;18.41;47.63;99520.69;5071095;28;20081;-46
2022/09/14 02:09:40;;;;;;;4.55;3.17;;;;;;;18.20;48.26;99534.03;5071539;28;20033;-44
2022/09/14 02:12:06;;;;;;;4.40;3.13;;;;;;;18.11;48.73;99530.19;5071483;28;20075;-44
2022/09/14 02:14:31;;;;;;;6.43;3.15;;;;;;;17.98;48.53;99524.16;5071306;28;20380;-43
2022/09/14 02:16:57;;;;;;;7.28;3.20;;;;;;;18.39;47.35;99522.81;5071114;28;20034;-43
2022/09/14 02:19:28;;;;;;;5.18;3.20;;;;;;;18.35;47.89;99526.06;5071106;28;20047;-44
2022/09/14 02:21:53;;;;;;;6.55;3.17;;;;;;;17.90;49.23;99519.25;5071243;28;20500;-43
2022/09/14 02:24:19;;;;;;;3.25;2.88;;;;;;;18.07;48.96;99526.41;5071076;28;20025;-44
2022/09/14 02:26:48;;;;;;;6.07;3.55;;;;;;;18.34;47.77;99524.41;5071302;28;20032;-42
2022/09/14 02:29:13;;;;;;;7.28;4.55;;;;;;;18.20;48.26;99530.50;5070661;28;20028;-43
2022/09/14 02:32:00;;;;;;;8.27;6.00;;;;;;;17.89;48.35;99531.09;5071288;28;20069;-44
2022/09/14 02:34:46;;;;;;;4.95;3.17;;;;;;;17.78;48.65;99530.19;5071188;28;20111;-45
2022/09/14 02:37:21;;;;;;;7.20;5.93;;;;;;;17.83;48.75;99534.78;5070969;28;20040;-43
2022/09/14 02:40:27;;;;;;;5.22;3.95;;;;;;;18.06;48.01;99533.66;5070835;28;20104;-44
2022/09/14 02:43:11;;;;;;;6.70;3.60;;;;;;;17.88;48.39;99542.13;5070435;28;20051;-43
2022/09/14 02:46:02;;;;;;;7.40;3.90;;;;;;;17.74;49.06;99536.31;5071001;28;20137;-45
2022/09/14 02:48:43;;;;;;;8.93;4.53;;;;;;;17.86;49.44;99545.06;5054819;28;20408;-43
2022/09/14 02:51:19;;;;;;;7.72;5.32;;;;;;;18.05;49.33;99536.59;5070752;28;20103;-43
2022/09/14 02:53:58;;;;;;;7.40;5.68;;;;;;;17.71;50.45;99547.59;5070941;28;20032;-44
2022/09/14 02:56:24;;;;;;;8.93;4.88;;;;;;;17.41;51.47;99538.16;5071109;28;20035;-43
2022/09/14 02:58:50;;;;;;;13.40;9.40;;;;;;;17.66;51.36;99544.84;5070668;28;20099;-43
2022/09/14 03:01:18;;;;;;;9.32;6.82;;;;;;;17.57;51.38;99539.09;5070339;28;20513;-43
2022/09/14 03:03:43;;;;;;;10.93;6.50;;;;;;;17.24;51.40;99540.13;5070778;28;20024;-42
2022/09/14 03:06:09;;;;;;;8.35;5.20;;;;;;;17.22;51.82;99542.25;5070827;28;20111;-42
2022/09/14 03:08:35;;;;;;;8.32;4.55;;;;;;;17.59;50.83;99545.88;5070660;28;20036;-43
2022/09/14 03:11:01;;;;;;;9.73;5.93;;;;;;;17.26;51.63;99546.88;5070465;28;20020;-44
2022/09/14 03:13:27;;;;;;;7.07;4.53;;;;;;;16.35;54.85;99529.28;5070333;28;20024;-43
2022/09/14 03:15:52;;;;;;;9.20;5.40;;;;;;;16.81;53.72;99537.16;5069341;28;20499;-43
2022/09/14 03:18:18;;;;;;;11.35;6.13;;;;;;;17.11;53.36;99538.63;5070401;28;20056;-44
2022/09/14 03:20:43;;;;;;;17.17;6.80;;;;;;;17.35;52.87;99537.28;5070255;28;20025;-43
2022/09/14 03:23:10;;;;;;;16.63;8.23;;;;;;;17.51;52.20;99550.88;5070234;28;20433;-43
2022/09/14 03:25:37;;;;;;;22.13;11.75;;;;;;;17.47;52.12;99541.72;5070143;28;20024;-43
2022/09/14 03:28:03;;;;;;;25.35;15.80;;;;;;;17.52;52.31;99539.88;5070525;28;20029;-42
2022/09/14 03:30:29;;;;;;;15.80;10.52;;;;;;;17.67;51.92;99543.78;5070016;28;20044;-44
2022/09/14 03:32:54;;;;;;;17.73;10.80;;;;;;;17.77;51.75;99544.69;5070006;28;20082;-43
2022/09/14 03:35:20;;;;;;;14.60;9.70;;;;;;;17.93;50.71;99540.28;5070614;28;20046;-43
2022/09/14 03:37:45;;;;;;;15.95;8.13;;;;;;;17.99;50.52;99535.72;5074960;28;20538;-44
2022/09/14 03:40:13;;;;;;;20.77;14.18;;;;;;;17.98;50.15;99555.66;5076971;28;20116;-44
2022/09/14 03:42:47;;;;;;;73.82;50.83;;;;;;;18.02;50.39;99542.50;5076374;28;20034;-43
2022/09/14 03:45:14;;;;;;;53.22;33.92;;;;;;;17.80;50.88;99548.75;5076818;28;20066;-44
2022/09/14 03:47:40;;;;;;;14.05;8.93;;;;;;;17.76;50.44;99542.25;5076645;28;20039;-42
2022/09/14 03:50:07;;;;;;;17.80;9.50;;;;;;;17.76;50.38;99550.31;5076490;28;20142;-42
2022/09/14 03:52:34;;;;;;;20.52;13.98;;;;;;;17.69;51.04;99550.53;5076607;28;20025;-42
2022/09/14 03:55:00;;;;;;;56.40;35.97;;;;;;;17.65;51.33;99556.66;5076763;28;20210;-43
2022/09/14 03:57:25;;;;;;;16.48;9.15;;;;;;;17.86;50.37;99547.75;5076804;28;20560;-42
2022/09/14 03:59:51;;;;;;;10.63;6.97;;;;;;;17.62;50.08;99536.47;5075388;28;20492;-43
2022/09/14 04:02:16;;;;;;;11.38;7.53;;;;;;;17.65;50.67;99546.75;5076380;28;20356;-42
2022/09/14 04:04:41;;;;;;;14.57;9.40;;;;;;;17.65;50.56;99551.28;5076485;28;20107;-43
2022/09/14 04:07:07;;;;;;;21.42;8.77;;;;;;;17.60;50.84;99552.06;5076597;28;20020;-42
2022/09/14 04:09:32;;;;;;;11.35;7.15;;;;;;;17.67;50.62;99554.53;5076693;28;20495;-42
2022/09/14 04:11:58;;;;;;;15.02;7.40;;;;;;;17.51;51.25;99540.94;5076387;28;20052;-42
2022/09/14 04:14:24;;;;;;;14.23;8.70;;;;;;;17.58;51.53;99552.31;5075895;28;20028;-44
2022/09/14 04:16:50;;;;;;;13.70;8.10;;;;;;;17.75;51.09;99548.72;5076718;28;20177;-42
2022/09/14 04:19:15;;;;;;;12.27;7.18;;;;;;;17.83;51.66;99548.22;5076549;28;20125;-42
2022/09/14 04:21:41;;;;;;;12.05;6.63;;;;;;;18.10;50.00;99544.72;5076391;28;20020;-43
2022/09/14 04:24:06;;;;;;;13.55;5.95;;;;;;;18.43;48.72;99550.84;5076345;28;20458;-44
2022/09/14 04:26:32;;;;;;;9.98;6.00;;;;;;;18.55;48.24;99544.22;5076122;28;20024;-43
2022/09/14 04:28:58;;;;;;;10.07;6.25;;;;;;;18.87;48.06;99553.31;5043130;28;20033;-43
2022/09/14 04:31:24;;;;;;;12.68;6.78;;;;;;;18.92;48.35;99556.84;5040984;28;20033;-42
2022/09/14 04:33:50;;;;;;;16.23;6.10;;;;;;;19.12;47.63;99558.00;5056436;28;20488;-43
2022/09/14 04:36:18;;;;;;;10.35;5.55;;;;;;;19.45;46.97;99567.50;5055938;28;20048;-43
2022/09/14 04:38:44;;;;;;;9.98;5.60;;;;;;;19.66;46.42;99556.75;5056376;28;20094;-44
2022/09/14 04:41:15;;;;;;;15.60;5.72;;;;;;;19.90;45.83;99559.78;5055441;28;20064;-43
2022/09/14 04:43:42;;;;;;;12.35;5.35;;;;;;;20.15;45.28;99555.47;5056145;28;20120;-44
2022/09/14 04:46:16;;;;;;;14.48;5.72;;;;;;;20.55;44.93;99554.59;5054848;28;20025;-43
2022/09/14 04:48:42;;;;;;;10.57;5.57;;;;;;;20.87;44.01;99556.16;5053300;28;20027;-43
2022/09/14 04:51:09;;;;;;;12.68;5.03;;;;;;;21.10;44.56;99562.81;5051969;28;20032;-43
2022/09/14 04:53:37;;;;;;;10.95;5.30;;;;;;;21.39;43.66;99564.84;5051238;28;20036;-42
2022/09/14 04:56:05;;;;;;;19.38;9.43;;;;;;;21.59;42.89;99569.34;5052813;28;20548;-43
2022/09/14 04:58:31;;;;;;;14.70;6.10;;;;;;;21.84;42.38;99563.75;5052478;28;20050;-45
2022/09/14 05:01:04;;;;;;;12.20;5.82;;;;;;;22.06;42.07;99567.91;5052881;28;20414;-42
2022/09/14 05:03:29;;;;;;;9.90;5.60;;;;;;;22.20;41.17;99563.47;5052318;28;20037;-42
2022/09/14 05:05:55;;;;;;;14.00;4.97;;;;;;;22.52;40.03;99564.00;5052744;28;20083;-46
2022/09/14 05:08:20;;;;;;;10.23;4.43;;;;;;;23.06;38.62;99562.88;5052307;28;20033;-45
2022/09/14 05:10:46;;;;;;;8.10;4.07;;;;;;;23.36;37.61;99567.09;5052103;28;20033;-43
2022/09/14 05:13:13;;;;;;;9.90;4.00;;;;;;;23.75;36.21;99568.69;5052592;28;20020;-44
2022/09/14 05:15:38;;;;;;;11.73;4.00;;;;;;;23.98;35.86;99568.91;5052688;28;20048;-41
2022/09/14 05:18:04;;;;;;;13.60;5.30;;;;;;;24.19;36.38;99570.19;5051819;28;20207;-42
2022/09/14 05:20:29;;;;;;;13.25;4.78;;;;;;;24.21;35.57;99561.75;5052646;28;20094;-44
2022/09/14 05:22:55;;;;;;;13.15;4.80;;;;;;;23.93;36.31;99571.72;5052358;28;20025;-42
2022/09/14 05:25:20;;;;;;;9.45;4.88;;;;;;;24.28;36.13;99564.09;5052454;28;20128;-44
2022/09/14 05:27:46;;;;;;;9.88;4.75;;;;;;;23.53;37.11;99568.47;5052629;28;20032;-44
2022/09/14 05:30:11;;;;;;;12.00;4.97;;;;;;;22.96;38.50;99566.50;5051604;28;20017;-44
2022/09/14 05:32:37;;;;;;;10.43;4.63;;;;;;;22.98;38.85;99566.19;5051960;28;20025;-44
2022/09/14 05:35:02;;;;;;;6.95;4.10;;;;;;;23.19;38.38;99570.31;5052116;28;20098;-43
2022/09/14 05:37:28;;;;;;;6.38;3.85;;;;;;;23.63;35.87;99571.06;5052179;28;20059;-43
2022/09/14 05:39:53;;;;;;;9.95;4.43;;;;;;;23.84;35.39;99552.56;5051936;28;20029;-43
2022/09/14 05:42:18;;;;;;;8.50;3.92;;;;;;;24.33;34.77;99574.84;5052067;28;20021;-44
2022/09/14 05:44:44;;;;;;;8.50;3.90;;;;;;;24.54;34.30;99565.25;5051813;28;20029;-44
2022/09/14 05:47:09;;;;;;;6.13;3.67;;;;;;;25.09;33.39;99569.91;5051725;28;20040;-41
2022/09/14 05:49:34;;;;;;;5.85;3.45;;;;;;;24.89;33.75;99579.28;5051096;28;20036;-43
2022/09/14 05:52:00;;;;;;;9.18;3.63;;;;;;;24.77;33.99;99582.50;5050859;28;20104;-42
2022/09/14 05:54:26;;;;;;;11.57;3.90;;;;;;;24.60;34.00;99587.72;5050365;28;20139;-44
2022/09/14 05:56:51;;;;;;;6.93;3.55;;;;;;;24.81;33.91;99590.88;5050560;28;20035;-43
2022/09/14 05:59:17;;;;;;;6.68;4.35;;;;;;;25.62;32.73;99589.47;5050250;28;20032;-44
2022/09/14 06:01:42;;;;;;;7.03;4.32;;;;;;;25.20;32.97;99589.53;5061549;28;20021;-43
2022/09/14 06:04:10;;;;;;;5.15;3.70;;;;;;;25.18;33.06;99589.03;5071440;28;20361;-47
2022/09/14 06:06:35;;;;;;;4.93;3.20;;;;;;;25.43;32.83;99590.41;5069942;28;20408;-44
2022/09/14 06:09:02;;;;;;;6.15;3.10;;;;;;;25.48;32.96;99594.97;5050331;28;20027;-43
2022/09/14 06:11:35;;;;;;;4.85;3.08;;;;;;;26.37;31.81;99600.78;5049829;28;20020;-45
2022/09/14 06:14:00;;;;;;;5.80;3.30;;;;;;;26.33;31.58;99598.69;5049824;28;20036;-43
2022/09/14 06:16:27;;;;;;;6.75;3.05;;;;;;;26.34;31.56;99603.00;5049290;28;20036;-47
2022/09/14 06:18:54;;;;;;;4.20;2.90;;;;;;;26.47;31.54;99608.72;5050639;28;20064;-41
2022/09/14 06:21:21;;;;;;;7.13;2.90;;;;;;;26.65;31.19;99609.63;5050578;28;20687;-46
2022/09/14 06:23:48;;;;;;;9.25;3.10;;;;;;;27.49;30.11;99605.88;5050195;28;20040;-43
2022/09/14 06:26:14;;;;;;;7.95;3.80;;;;;;;27.40;29.80;99612.47;5050742;28;20029;-43
2022/09/14 06:28:39;;;;;;;8.65;4.82;;;;;;;28.08;28.78;99618.28;5050511;28;20112;-43
2022/09/14 06:31:06;;;;;;;10.95;5.25;;;;;;;28.91;27.90;99621.78;5050558;28;20047;-44
2022/09/14 06:33:32;;;;;;;8.20;3.72;;;;;;;29.66;26.91;99613.75;5052665;28;20058;-42
2022/09/14 06:36:02;;;;;;;8.32;3.15;;;;;;;30.06;26.97;99620.72;5070971;28;20025;-43
2022/09/14 06:38:29;;;;;;;8.50;4.30;;;;;;;30.37;26.02;99618.34;5070663;28;20021;-44
2022/09/14 06:41:00;;;;;;;9.45;4.95;;;;;;;30.18;26.38;99621.56;5070495;28;20385;-43
2022/09/14 06:43:27;;;;;;;8.52;3.80;;;;;;;30.49;26.51;99614.03;5069672;28;20031;-44
2022/09/14 06:46:08;;;;;;;7.78;4.53;;;;;;;31.12;25.84;99620.03;5070115;28;20066;-46
2022/09/14 06:48:39;;;;;;;6.40;3.28;;;;;;;31.39;25.21;99612.22;5070078;28;20081;-42
2022/09/14 06:51:20;;;;;;;5.57;2.88;;;;;;;32.23;23.57;99625.25;5069558;28;20077;-45
2022/09/14 06:53:47;;;;;;;5.00;2.70;;;;;;;32.37;23.73;99616.59;5069486;28;20055;-47
2022/09/14 06:56:14;;;;;;;3.92;3.00;;;;;;;32.36;23.82;99620.50;5069652;28;20061;-43
2022/09/14 06:58:40;;;;;;;4.70;2.90;;;;;;;32.43;23.80;99615.19;5042529;28;20024;-45
2022/09/14 07:01:13;;;;;;;7.85;3.00;;;;;;;32.64;23.94;99631.50;5031069;28;20382;-44
2022/09/14 07:03:38;;;;;;;6.18;2.83;;;;;;;32.92;23.17;99627.84;5030469;28;20033;-44
2022/09/14 07:06:12;;;;;;;4.40;3.15;;;;;;;33.37;22.75;99623.78;5030054;28;20078;-47
2022/09/14 07:08:38;;;;;;;4.57;2.88;;;;;;;33.45;22.07;99628.31;5030714;28;20021;-43
2022/09/14 07:11:06;;;;;;;7.53;2.92;;;;;;;33.47;22.45;99625.16;5030392;28;20417;-45
2022/09/14 07:13:32;;;;;;;7.15;3.40;;;;;;;33.38;22.23;99624.59;5030164;28;20095;-45
2022/09/14 07:15:57;;;;;;;8.35;3.33;;;;;;;33.54;22.39;99625.31;5030017;28;20021;-44
2022/09/14 07:18:27;;;;;;;5.28;3.00;;;;;;;33.45;22.28;99619.22;5029519;28;20068;-45
2022/09/14 07:20:54;;;;;;;6.57;3.45;;;;;;;33.68;22.24;99619.34;5029819;28;20457;-44
2022/09/14 07:23:19;;;;;;;7.82;3.20;;;;;;;33.73;22.21;99610.78;5029832;28;20068;-46
2022/09/14 07:25:45;;;;;;;6.18;3.28;;;;;;;34.20;22.07;99614.50;5028911;28;20485;-43
2022/09/14 07:28:10;;;;;;;5.18;2.90;;;;;;;34.49;21.49;99613.03;5029063;28;20036;-45
2022/09/14 07:30:37;;;;;;;7.93;3.10;;;;;;;34.74;20.82;99602.41;5028842;28;20327;-43
2022/09/14 07:33:05;;;;;;;8.77;2.90;;;;;;;34.83;20.71;99604.94;5028475;28;20021;-43
2022/09/14 07:35:31;;;;;;;4.38;2.75;;;;;;;34.88;20.86;99590.00;5028676;28;20032;-44
2022/09/14 07:37:57;;;;;;;6.63;3.10;;;;;;;34.80;20.87;99598.16;5029075;28;20030;-43
2022/09/14 07:40:23;;;;;;;7.68;3.50;;;;;;;34.48;21.44;99592.09;5029446;28;20052;-44
2022/09/14 07:42:52;;;;;;;6.25;3.08;;;;;;;34.08;21.95;99590.56;5029314;28;20049;-46
2022/09/14 07:45:19;;;;;;;7.32;3.03;;;;;;;34.43;21.00;99589.66;5028319;28;20021;-45
2022/09/14 07:47:44;;;;;;;5.18;3.08;;;;;;;34.43;21.39;99584.13;5029386;28;20029;-43
2022/09/14 07:50:10;;;;;;;11.35;3.30;;;;;;;34.22;21.29;99585.34;5029766;28;20032;-43
2022/09/14 07:52:35;;;;;;;7.40;3.17;;;;;;;33.94;21.41;99584.78;5029724;28;20095;-47
2022/09/14 07:55:00;;;;;;;5.68;3.10;;;;;;;33.39;23.02;99579.31;5029486;28;20516;-45
2022/09/14 07:57:26;;;;;;;7.32;3.17;;;;;;;34.01;21.92;99576.63;5030053;28;20430;-45
2022/09/14 07:59:52;;;;;;;5.78;3.22;;;;;;;34.09;22.05;99570.88;5029827;28;20033;-46
2022/09/14 08:02:17;;;;;;;15.45;3.85;;;;;;;34.38;21.92;99576.94;5039008;28;20500;-46
2022/09/14 08:04:43;;;;;;;7.97;3.58;;;;;;;34.77;21.41;99579.59;5049600;28;20037;-47
2022/09/14 08:07:09;;;;;;;8.45;3.00;;;;;;;34.83;21.26;99569.00;5049451;28;20025;-46
2022/09/14 08:09:34;;;;;;;5.22;3.10;;;;;;;34.91;20.76;99579.00;5048826;28;20021;-44
2022/09/14 08:11:59;;;;;;;8.20;3.20;;;;;;;34.45;20.84;99579.03;5049594;28;20076;-45
2022/09/14 08:14:25;;;;;;;8.15;3.30;;;;;;;33.87;21.65;99577.97;5049334;28;20481;-43
2022/09/14 08:16:51;;;;;;;5.72;3.20;;;;;;;33.80;21.62;99586.09;5049246;28;20037;-43
2022/09/14 08:19:19;;;;;;;5.65;3.17;;;;;;;33.37;22.13;99585.16;5049163;28;20106;-47
2022/09/14 08:21:45;;;;;;;11.13;3.30;;;;;;;32.77;22.87;99576.28;5049809;28;20053;-46
2022/09/14 08:24:12;;;;;;;10.18;3.35;;;;;;;32.43;23.15;99573.88;5052144;28;20029;-43
2022/09/14 08:26:39;;;;;;;7.90;3.22;;;;;;;32.54;22.89;99572.19;5053416;28;20497;-48
2022/09/14 08:29:06;;;;;;;8.25;3.33;;;;;;;32.73;23.19;99571.50;5053037;28;20029;-46
2022/09/14 08:31:35;;;;;;;8.00;3.10;;;;;;;33.01;22.77;99573.31;5051284;28;20032;-46
2022/09/14 08:34:02;;;;;;;7.55;3.40;;;;;;;32.94;22.95;99567.66;5052868;28;20021;-47
2022/09/14 08:36:37;;;;;;;7.72;3.15;;;;;;;33.34;22.13;99572.13;5053027;28;20056;-43
2022/09/14 08:39:05;;;;;;;9.02;3.00;;;;;;;33.56;21.96;99567.06;5052594;28;20021;-45
2022/09/14 08:41:33;;;;;;;10.80;3.15;;;;;;;33.99;21.87;99562.41;5052573;28;20327;-43
2022/09/14 08:44:04;;;;;;;14.18;3.58;;;;;;;34.44;21.50;99556.16;5052739;28;20025;-43
2022/09/14 08:46:39;;;;;;;7.43;2.85;;;;;;;34.86;20.39;99559.97;5052753;28;20036;-45
2022/09/14 08:49:15;;;;;;;6.18;2.70;;;;;;;34.65;21.46;99554.88;5052537;28;20075;-47
2022/09/14 08:51:41;;;;;;;7.45;2.78;;;;;;;34.56;21.23;99549.63;5052726;28;20025;-44
2022/09/14 08:54:09;;;;;;;11.70;3.33;;;;;;;34.09;21.04;99548.00;5052643;28;20044;-44
2022/09/14 08:56:40;;;;;;;5.43;2.90;;;;;;;33.44;22.41;99555.00;5052618;28;20020;-43
2022/09/14 08:59:16;;;;;;;9.88;3.00;;;;;;;33.44;21.49;99555.00;5052441;28;20397;-48
2022/09/14 09:01:53;;;;;;;3.70;2.53;;;;;;;33.93;21.57;99541.78;5051918;28;20529;-42
2022/09/14 09:04:54;;;;;;;12.15;3.40;;;;;;;33.79;21.76;99543.09;5051718;28;20078;-43
2022/09/14 09:07:40;;;;;;;5.82;2.75;;;;;;;34.08;21.23;99529.81;5029629;28;20039;-43
2022/09/14 09:10:10;;;;;;;12.27;3.13;;;;;;;33.60;22.48;99534.81;5052106;28;20028;-43
2022/09/14 09:12:36;;;;;;;7.60;2.80;;;;;;;33.88;21.83;99526.31;5051969;28;20464;-45
2022/09/14 09:15:24;;;;;;;9.10;2.97;;;;;;;33.86;21.67;99534.97;5052101;28;20029;-46
2022/09/14 09:17:54;;;;;;;13.15;2.95;;;;;;;33.53;22.05;99527.22;5045226;28;20048;-46
2022/09/14 09:20:22;;;;;;;9.15;2.85;;;;;;;33.93;20.96;99520.53;5052070;28;20025;-44
2022/09/14 09:22:57;;;;;;;5.45;2.50;;;;;;;34.04;21.38;99527.03;5052576;28;20025;-47
2022/09/14 09:25:32;;;;;;;5.43;2.50;;;;;;;34.13;20.26;99515.72;5052221;28;20040;-47
2022/09/14 09:28:01;;;;;;;4.80;2.40;;;;;;;34.00;20.29;99512.34;5052184;28;20108;-47
2022/09/14 09:30:28;;;;;;;11.95;8.65;;;;;;;33.67;21.12;99513.72;5052254;28;20025;-47
2022/09/14 09:32:55;;;;;;;7.00;3.92;;;;;;;33.74;21.08;99515.00;5051781;28;20025;-47
2022/09/14 09:35:23;;;;;;;5.60;3.15;;;;;;;34.07;20.96;99511.69;5051137;28;20028;-46
2022/09/14 09:37:49;;;;;;;5.13;1.80;;;;;;;34.47;19.98;99502.91;5052289;28;20090;-44
2022/09/14 09:40:36;;;;;;;2.90;2.00;;;;;;;34.94;19.14;99502.81;5052034;28;20033;-44
2022/09/14 09:43:11;;;;;;;4.28;1.90;;;;;;;35.34;19.56;99496.66;5051786;28;20024;-45
2022/09/14 09:46:06;;;;;;;5.15;2.13;;;;;;;35.66;18.99;99492.66;5051577;28;20051;-45
2022/09/14 09:48:37;;;;;;;3.97;2.15;;;;;;;34.52;20.29;99485.25;5051558;28;20040;-49
2022/09/14 09:51:32;;;;;;;3.45;2.00;;;;;;;35.07;19.62;99484.84;5051501;28;20449;-44
2022/09/14 09:54:08;;;;;;;3.72;1.98;;;;;;;34.43;20.26;99482.72;5051429;28;20093;-45
2022/09/14 09:56:55;;;;;;;10.68;8.68;;;;;;;34.92;19.97;99486.63;5051142;28;20021;-42
2022/09/14 09:59:34;;;;;;;8.98;2.78;;;;;;;35.13;18.70;99482.53;5050642;28;20373;-44
2022/09/14 10:02:24;;;;;;;6.70;3.97;;;;;;;34.70;20.30;99485.53;5051622;28;20021;-46
2022/09/14 10:05:00;;;;;;;4.50;2.35;;;;;;;35.45;19.28;99482.94;5051731;28;20021;-44
2022/09/14 10:07:28;;;;;;;2.65;1.90;;;;;;;35.16;19.76;99481.78;5051315;28;20388;-44
2022/09/14 10:10:09;;;;;;;3.43;1.77;;;;;;;35.08;19.84;99478.13;5051715;28;20083;-45
2022/09/14 10:12:37;;;;;;;3.72;1.98;;;;;;;35.10;19.91;99484.09;5051378;28;20024;-43
2022/09/14 10:15:06;;;;;;;2.67;1.80;;;;;;;34.87;19.51;99472.34;5051719;28;20461;-44
2022/09/14 10:17:32;;;;;;;6.43;2.50;;;;;;;35.33;19.82;99483.22;5051044;28;20417;-45
2022/09/14 10:19:58;;;;;;;4.18;1.80;;;;;;;35.25;19.61;99471.28;5051480;28;20044;-45
2022/09/14 10:22:30;;;;;;;4.13;3.33;;;;;;;34.28;19.80;99465.13;5051215;28;20028;-46
2022/09/14 10:25:02;;;;;;;22.90;18.08;;;;;;;34.01;20.37;99460.72;5051375;28;20029;-47
2022/09/14 10:27:38;;;;;;;4.97;1.90;;;;;;;33.07;21.82;99466.38;5051099;28;20464;-44
2022/09/14 10:30:06;;;;;;;2.90;1.70;;;;;;;33.20;21.91;99461.53;5051294;28;20040;-46
2022/09/14 10:32:32;;;;;;;4.20;1.87;;;;;;;33.53;21.09;99466.53;5051288;28;20124;-46
2022/09/14 10:34:58;;;;;;;2.55;1.77;;;;;;;34.22;20.29;99460.31;5051234;28;20033;-47
2022/09/14 10:37:56;;;;;;;4.85;1.83;;;;;;;33.90;21.09;99463.28;5050831;28;20021;-47
2022/09/14 10:40:51;;;;;;;2.40;1.60;;;;;;;34.73;20.40;99451.63;5051310;28;20043;-46
2022/09/14 10:43:34;;;;;;;7.95;1.85;;;;;;;34.49;20.17;99457.56;5049758;28;20048;-48
2022/09/14 10:46:03;;;;;;;2.83;1.70;;;;;;;34.83;20.09;99441.91;5050833;28;20043;-46
2022/09/14 10:48:28;;;;;;;4.82;2.00;;;;;;;34.06;20.67;99449.34;5049317;28;20403;-47
2022/09/14 10:51:06;;;;;;;6.07;2.60;;;;;;;33.96;20.56;99442.50;5050761;28;20104;-46
2022/09/14 10:53:54;;;;;;;5.22;1.90;;;;;;;33.99;20.00;99439.00;5050523;28;20028;-44
2022/09/14 10:56:33;;;;;;;3.40;2.50;;;;;;;34.45;20.40;99438.19;5050613;28;20036;-46
2022/09/14 10:59:10;;;;;;;3.25;1.70;;;;;;;34.37;19.89;99433.72;5050531;28;20040;-43
2022/09/14 11:01:46;;;;;;;2.78;1.70;;;;;;;34.30;19.84;99430.84;5050196;28;20033;-44
2022/09/14 11:04:46;;;;;;;4.85;1.90;;;;;;;34.43;19.21;99430.25;5050530;28;20116;-45
2022/09/14 11:07:22;;;;;;;3.85;1.70;;;;;;;34.59;19.26;99432.06;5050682;28;20029;-44
2022/09/14 11:10:02;;;;;;;3.63;1.70;;;;;;;35.47;18.56;99428.06;5050395;28;20409;-43
2022/09/14 11:12:39;;;;;;;2.78;1.70;;;;;;;35.78;18.39;99424.03;5050383;28;20037;-43
2022/09/14 11:15:14;;;;;;;3.03;1.83;;;;;;;36.11;18.33;99425.09;5050828;28;20029;-42
2022/09/14 11:18:08;;;;;;;3.92;1.70;;;;;;;35.90;18.41;99425.72;5050406;28;20426;-42
2022/09/14 11:21:03;;;;;;;2.25;1.60;;;;;;;35.48;18.72;99417.78;5048367;28;20094;-44
2022/09/14 11:23:39;;;;;;;4.18;1.65;;;;;;;35.26;19.26;99414.00;5046004;28;20554;-44
2022/09/14 11:26:21;;;;;;;4.47;2.35;;;;;;;35.32;18.55;99402.22;5050492;28;20116;-45
2022/09/14 11:29:03;;;;;;;8.85;3.70;;;;;;;35.48;18.84;99407.50;5050259;28;20466;-47
2022/09/14 11:31:39;;;;;;;6.07;2.88;;;;;;;35.89;19.14;99399.22;5049859;28;20062;-46
2022/09/14 11:34:07;;;;;;;5.68;2.00;;;;;;;36.49;18.09;99392.53;5050283;28;20094;-45
2022/09/14 11:36:50;;;;;;;4.35;1.90;;;;;;;36.98;17.96;99393.19;5050246;28;20054;-45
2022/09/14 11:39:28;;;;;;;6.38;1.95;;;;;;;35.33;19.44;99389.97;5050436;28;20024;-48
2022/09/14 11:42:00;;;;;;;3.25;1.67;;;;;;;35.49;19.13;99375.09;5049903;28;20025;-46
2022/09/14 11:44:38;;;;;;;4.55;1.90;;;;;;;35.70;18.10;99380.88;5050074;28;20028;-46
2022/09/14 11:47:11;;;;;;;4.32;1.60;;;;;;;35.62;18.69;99377.22;5050314;28;20017;-44
2022/09/14 11:49:58;;;;;;;2.72;1.80;;;;;;;36.44;18.10;99379.03;5049951;28;20025;-44